sensor_id;sensor_type;location;lat;lon;timestamp;temperature;humidity
35668;DHT22;22158;59.280;17.806;2022-10-16T00:00:34;12.60;99.90
35668;DHT22;22158;59.280;17.806;2022-10-16T00:03:00;12.70;99.90
35668;DHT22;22158;59.280;17.806;2022-10-16T00:05:25;12.70;99.90
35668;DHT22;22158;59.280;17.806;2022-10-16T00:07:51;12.70;99.90
35668;DHT22;22158;59.280;17.806;2022-10-16T00:10:17;12.70;99.90
35668;DHT22;22158;59.280;17.806;2022-10-16T00:12:42;12.60;99.90
35668;DHT22;22158;59.280;17.806;2022-10-16T00:15:08;12.60;99.90
35668;DHT22;22158;59.280;17.806;2022-10-16T00:17:34;12.60;99.90
35668;DHT22;22158;59.280;17.806;2022-10-16T00:20:00;12.60;99.90
35668;DHT22;22158;59.280;17.806;2022-10-16T00:22:25;12.60;99.90
35668;DHT22;22158;59.280;17.806;2022-10-16T00:24:51;12.50;99.90
35668;DHT22;22158;59.280;17.806;2022-10-16T00:27:17;12.60;99.90
35668;DHT22;22158;59.280;17.806;2022-10-16T00:29:43;12.50;99.90
35668;DHT22;22158;59.280;17.806;2022-10-16T00:32:08;12.40;99.90
35668;DHT22;22158;59.280;17.806;2022-10-16T00:34:34;12.40;99.90
35668;DHT22;22158;59.280;17.806;2022-10-16T00:37:00;12.40;99.90
35668;DHT22;22158;59.280;17.806;2022-10-16T00:39:26;12.40;99.90
35668;DHT22;22158;59.280;17.806;2022-10-16T00:41:52;12.40;99.90
35668;DHT22;22158;59.280;17.806;2022-10-16T00:44:47;12.30;99.90
35668;DHT22;22158;59.280;17.806;2022-10-16T00:47:18;12.30;99.90
35668;DHT22;22158;59.280;17.806;2022-10-16T00:49:46;12.30;99.90
35668;DHT22;22158;59.280;17.806;2022-10-16T00:52:13;12.30;99.90
35668;DHT22;22158;59.280;17.806;2022-10-16T00:54:40;12.20;99.90
35668;DHT22;22158;59.280;17.806;2022-10-16T00:57:08;12.20;99.90
35668;DHT22;22158;59.280;17.806;2022-10-16T00:59:39;12.20;99.90
35668;DHT22;22158;59.280;17.806;2022-10-16T01:02:07;12.20;99.90
35668;DHT22;22158;59.280;17.806;2022-10-16T01:04:47;12.10;99.90
35668;DHT22;22158;59.280;17.806;2022-10-16T01:15:48;12.20;99.90
35668;DHT22;22158;59.280;17.806;2022-10-16T01:20:59;12.30;99.90
35668;DHT22;22158;59.280;17.806;2022-10-16T01:26:37;12.30;99.90
35668;DHT22;22158;59.280;17.806;2022-10-16T01:29:15;12.30;99.90
35668;DHT22;22158;59.280;17.806;2022-10-16T01:31:48;12.40;99.90
35668;DHT22;22158;59.280;17.806;2022-10-16T01:34:19;12.40;99.90
35668;DHT22;22158;59.280;17.806;2022-10-16T01:36:51;12.40;99.90
35668;DHT22;22158;59.280;17.806;2022-10-16T01:39:21;12.50;99.90
35668;DHT22;22158;59.280;17.806;2022-10-16T01:42:09;12.50;99.90
35668;DHT22;22158;59.280;17.806;2022-10-16T01:44:37;12.50;99.90
35668;DHT22;22158;59.280;17.806;2022-10-16T01:47:05;12.50;99.90
35668;DHT22;22158;59.280;17.806;2022-10-16T01:49:34;12.50;99.90
35668;DHT22;22158;59.280;17.806;2022-10-16T01:52:05;12.40;99.90
35668;DHT22;22158;59.280;17.806;2022-10-16T01:54:34;12.40;99.90
35668;DHT22;22158;59.280;17.806;2022-10-16T01:57:01;12.50;99.90
35668;DHT22;22158;59.280;17.806;2022-10-16T01:59:31;12.50;99.90
35668;DHT22;22158;59.280;17.806;2022-10-16T02:02:01;12.40;99.90
35668;DHT22;22158;59.280;17.806;2022-10-16T02:04:38;12.50;99.90
35668;DHT22;22158;59.280;17.806;2022-10-16T02:07:05;12.50;99.90
35668;DHT22;22158;59.280;17.806;2022-10-16T02:09:35;12.60;99.90
35668;DHT22;22158;59.280;17.806;2022-10-16T02:12:10;12.60;99.90
35668;DHT22;22158;59.280;17.806;2022-10-16T02:14:38;12.60;99.90
35668;DHT22;22158;59.280;17.806;2022-10-16T02:17:16;12.60;99.90
35668;DHT22;22158;59.280;17.806;2022-10-16T02:19:43;12.50;99.90
35668;DHT22;22158;59.280;17.806;2022-10-16T02:22:15;12.50;99.90
35668;DHT22;22158;59.280;17.806;2022-10-16T02:24:50;12.60;99.90
35668;DHT22;22158;59.280;17.806;2022-10-16T02:27:41;12.50;99.90
35668;DHT22;22158;59.280;17.806;2022-10-16T02:30:29;12.50;99.90
35668;DHT22;22158;59.280;17.806;2022-10-16T02:32:58;12.50;99.90
35668;DHT22;22158;59.280;17.806;2022-10-16T02:35:26;12.60;99.90
35668;DHT22;22158;59.280;17.806;2022-10-16T02:37:53;12.50;99.90
35668;DHT22;22158;59.280;17.806;2022-10-16T02:40:20;12.50;99.90
35668;DHT22;22158;59.280;17.806;2022-10-16T02:42:53;12.50;99.90
35668;DHT22;22158;59.280;17.806;2022-10-16T02:45:19;12.50;99.90
35668;DHT22;22158;59.280;17.806;2022-10-16T02:47:45;12.50;99.90
35668;DHT22;22158;59.280;17.806;2022-10-16T02:50:11;12.50;99.90
35668;DHT22;22158;59.280;17.806;2022-10-16T02:52:36;12.50;99.90
35668;DHT22;22158;59.280;17.806;2022-10-16T02:55:02;12.50;99.90
35668;DHT22;22158;59.280;17.806;2022-10-16T02:57:28;12.50;99.90
35668;DHT22;22158;59.280;17.806;2022-10-16T02:59:54;12.50;99.90
35668;DHT22;22158;59.280;17.806;2022-10-16T03:02:19;12.50;99.90
35668;DHT22;22158;59.280;17.806;2022-10-16T03:04:45;12.50;99.90
35668;DHT22;22158;59.280;17.806;2022-10-16T03:07:11;12.50;99.90
35668;DHT22;22158;59.280;17.806;2022-10-16T03:09:37;12.50;99.90
35668;DHT22;22158;59.280;17.806;2022-10-16T03:12:02;12.50;99.90
35668;DHT22;22158;59.280;17.806;2022-10-16T03:14:28;12.50;99.90
35668;DHT22;22158;59.280;17.806;2022-10-16T03:16:54;12.50;99.90
35668;DHT22;22158;59.280;17.806;2022-10-16T03:19:20;12.40;99.90
35668;DHT22;22158;59.280;17.806;2022-10-16T03:21:45;12.30;99.90
35668;DHT22;22158;59.280;17.806;2022-10-16T03:24:11;12.40;99.90
35668;DHT22;22158;59.280;17.806;2022-10-16T03:26:37;12.30;99.90
35668;DHT22;22158;59.280;17.806;2022-10-16T03:29:03;12.30;99.90
35668;DHT22;22158;59.280;17.806;2022-10-16T03:31:29;12.30;99.90
35668;DHT22;22158;59.280;17.806;2022-10-16T03:33:55;12.20;99.90
35668;DHT22;22158;59.280;17.806;2022-10-16T03:36:20;12.20;99.90
35668;DHT22;22158;59.280;17.806;2022-10-16T03:38:46;12.20;99.90
35668;DHT22;22158;59.280;17.806;2022-10-16T03:41:12;12.20;99.90
35668;DHT22;22158;59.280;17.806;2022-10-16T03:43:37;12.20;99.90
35668;DHT22;22158;59.280;17.806;2022-10-16T03:46:03;12.30;99.90
35668;DHT22;22158;59.280;17.806;2022-10-16T03:48:29;12.20;99.90
35668;DHT22;22158;59.280;17.806;2022-10-16T03:50:54;12.20;99.90
35668;DHT22;22158;59.280;17.806;2022-10-16T03:53:20;12.20;99.90
35668;DHT22;22158;59.280;17.806;2022-10-16T03:55:46;12.20;99.90
35668;DHT22;22158;59.280;17.806;2022-10-16T03:58:12;12.20;99.90
35668;DHT22;22158;59.280;17.806;2022-10-16T04:00:45;12.20;99.90
35668;DHT22;22158;59.280;17.806;2022-10-16T04:03:12;12.20;99.90
35668;DHT22;22158;59.280;17.806;2022-10-16T04:05:38;12.10;99.90
35668;DHT22;22158;59.280;17.806;2022-10-16T04:08:04;12.20;99.90
35668;DHT22;22158;59.280;17.806;2022-10-16T04:10:30;12.20;99.90
35668;DHT22;22158;59.280;17.806;2022-10-16T04:12:55;12.10;99.90
35668;DHT22;22158;59.280;17.806;2022-10-16T04:15:22;12.20;99.90
35668;DHT22;22158;59.280;17.806;2022-10-16T04:17:49;12.10;99.90
35668;DHT22;22158;59.280;17.806;2022-10-16T04:20:15;12.10;99.90
35668;DHT22;22158;59.280;17.806;2022-10-16T04:22:40;12.10;99.90
35668;DHT22;22158;59.280;17.806;2022-10-16T04:25:06;12.00;99.90
35668;DHT22;22158;59.280;17.806;2022-10-16T04:27:32;12.00;99.90
35668;DHT22;22158;59.280;17.806;2022-10-16T04:29:59;12.00;99.90
35668;DHT22;22158;59.280;17.806;2022-10-16T04:32:25;12.00;99.90
35668;DHT22;22158;59.280;17.806;2022-10-16T04:34:51;12.00;99.90
35668;DHT22;22158;59.280;17.806;2022-10-16T04:37:16;12.00;99.90
35668;DHT22;22158;59.280;17.806;2022-10-16T04:39:42;11.90;99.90
35668;DHT22;22158;59.280;17.806;2022-10-16T04:42:08;11.90;99.90
35668;DHT22;22158;59.280;17.806;2022-10-16T04:44:33;11.90;99.90
35668;DHT22;22158;59.280;17.806;2022-10-16T04:46:59;11.90;99.90
35668;DHT22;22158;59.280;17.806;2022-10-16T04:49:25;11.90;99.90
35668;DHT22;22158;59.280;17.806;2022-10-16T04:51:50;12.00;99.90
35668;DHT22;22158;59.280;17.806;2022-10-16T04:54:16;11.90;99.90
35668;DHT22;22158;59.280;17.806;2022-10-16T04:56:41;11.90;99.90
35668;DHT22;22158;59.280;17.806;2022-10-16T04:59:16;11.90;99.90
35668;DHT22;22158;59.280;17.806;2022-10-16T05:01:41;11.90;99.90
35668;DHT22;22158;59.280;17.806;2022-10-16T05:04:07;11.90;99.90
35668;DHT22;22158;59.280;17.806;2022-10-16T05:06:33;11.90;99.90
35668;DHT22;22158;59.280;17.806;2022-10-16T05:08:59;11.90;99.90
35668;DHT22;22158;59.280;17.806;2022-10-16T05:11:24;11.90;99.90
35668;DHT22;22158;59.280;17.806;2022-10-16T05:13:50;11.90;99.90
35668;DHT22;22158;59.280;17.806;2022-10-16T05:16:16;11.80;99.90
35668;DHT22;22158;59.280;17.806;2022-10-16T05:18:41;11.80;99.90
35668;DHT22;22158;59.280;17.806;2022-10-16T05:21:07;11.80;99.90
35668;DHT22;22158;59.280;17.806;2022-10-16T05:23:33;11.80;99.90
35668;DHT22;22158;59.280;17.806;2022-10-16T05:25:59;11.80;99.90
35668;DHT22;22158;59.280;17.806;2022-10-16T05:28:28;11.80;99.90
35668;DHT22;22158;59.280;17.806;2022-10-16T05:30:56;11.80;99.90
35668;DHT22;22158;59.280;17.806;2022-10-16T05:33:23;11.80;99.90
35668;DHT22;22158;59.280;17.806;2022-10-16T05:35:50;11.80;99.90
35668;DHT22;22158;59.280;17.806;2022-10-16T05:38:17;11.90;99.90
35668;DHT22;22158;59.280;17.806;2022-10-16T05:40:43;11.80;99.90
35668;DHT22;22158;59.280;17.806;2022-10-16T05:43:09;11.90;99.90
35668;DHT22;22158;59.280;17.806;2022-10-16T05:45:34;11.90;99.90
35668;DHT22;22158;59.280;17.806;2022-10-16T05:48:00;11.90;99.90
35668;DHT22;22158;59.280;17.806;2022-10-16T05:50:26;11.90;99.90
35668;DHT22;22158;59.280;17.806;2022-10-16T05:52:52;11.90;99.90
35668;DHT22;22158;59.280;17.806;2022-10-16T05:55:18;12.00;99.90
35668;DHT22;22158;59.280;17.806;2022-10-16T05:57:43;12.00;99.90
35668;DHT22;22158;59.280;17.806;2022-10-16T06:00:09;12.00;99.90
35668;DHT22;22158;59.280;17.806;2022-10-16T06:02:35;12.00;99.90
35668;DHT22;22158;59.280;17.806;2022-10-16T06:05:01;12.00;99.90
35668;DHT22;22158;59.280;17.806;2022-10-16T06:07:27;12.00;99.90
35668;DHT22;22158;59.280;17.806;2022-10-16T06:09:53;12.00;99.90
35668;DHT22;22158;59.280;17.806;2022-10-16T06:12:19;12.10;99.90
35668;DHT22;22158;59.280;17.806;2022-10-16T06:14:45;12.10;99.90
35668;DHT22;22158;59.280;17.806;2022-10-16T06:17:14;12.10;99.90
35668;DHT22;22158;59.280;17.806;2022-10-16T06:19:40;12.20;99.90
35668;DHT22;22158;59.280;17.806;2022-10-16T06:22:06;12.20;99.90
35668;DHT22;22158;59.280;17.806;2022-10-16T06:24:32;12.20;99.90
35668;DHT22;22158;59.280;17.806;2022-10-16T06:26:58;12.20;99.90
35668;DHT22;22158;59.280;17.806;2022-10-16T06:29:23;12.30;99.90
35668;DHT22;22158;59.280;17.806;2022-10-16T06:31:49;12.20;99.90
35668;DHT22;22158;59.280;17.806;2022-10-16T06:34:15;12.30;99.90
35668;DHT22;22158;59.280;17.806;2022-10-16T06:36:41;12.40;99.90
35668;DHT22;22158;59.280;17.806;2022-10-16T06:39:08;12.40;99.90
35668;DHT22;22158;59.280;17.806;2022-10-16T06:41:34;12.40;99.90
35668;DHT22;22158;59.280;17.806;2022-10-16T06:44:00;12.40;99.90
35668;DHT22;22158;59.280;17.806;2022-10-16T06:46:27;12.40;99.90
35668;DHT22;22158;59.280;17.806;2022-10-16T06:48:53;12.40;99.90
35668;DHT22;22158;59.280;17.806;2022-10-16T06:51:21;12.50;99.90
35668;DHT22;22158;59.280;17.806;2022-10-16T06:53:52;12.50;99.90
35668;DHT22;22158;59.280;17.806;2022-10-16T06:56:21;12.60;99.90
35668;DHT22;22158;59.280;17.806;2022-10-16T06:58:48;12.60;99.90
35668;DHT22;22158;59.280;17.806;2022-10-16T07:01:15;12.50;99.90
35668;DHT22;22158;59.280;17.806;2022-10-16T07:03:43;12.50;99.90
35668;DHT22;22158;59.280;17.806;2022-10-16T07:06:11;12.50;99.90
35668;DHT22;22158;59.280;17.806;2022-10-16T07:08:39;12.50;99.90
35668;DHT22;22158;59.280;17.806;2022-10-16T07:11:10;12.50;99.90
35668;DHT22;22158;59.280;17.806;2022-10-16T07:13:38;12.50;99.90
35668;DHT22;22158;59.280;17.806;2022-10-16T07:16:08;12.60;99.90
35668;DHT22;22158;59.280;17.806;2022-10-16T07:18:34;12.60;99.90
35668;DHT22;22158;59.280;17.806;2022-10-16T07:21:10;12.60;99.90
35668;DHT22;22158;59.280;17.806;2022-10-16T07:23:37;12.70;99.90
35668;DHT22;22158;59.280;17.806;2022-10-16T07:26:04;12.70;99.90
35668;DHT22;22158;59.280;17.806;2022-10-16T07:28:30;12.70;99.90
35668;DHT22;22158;59.280;17.806;2022-10-16T07:31:02;12.70;99.90
35668;DHT22;22158;59.280;17.806;2022-10-16T07:33:28;12.70;99.90
35668;DHT22;22158;59.280;17.806;2022-10-16T07:35:54;12.70;99.90
35668;DHT22;22158;59.280;17.806;2022-10-16T07:38:21;12.70;99.90
35668;DHT22;22158;59.280;17.806;2022-10-16T07:40:47;12.70;99.90
35668;DHT22;22158;59.280;17.806;2022-10-16T07:43:14;12.70;99.90
35668;DHT22;22158;59.280;17.806;2022-10-16T07:45:48;12.80;99.90
35668;DHT22;22158;59.280;17.806;2022-10-16T07:48:17;12.80;99.90
35668;DHT22;22158;59.280;17.806;2022-10-16T07:50:43;12.80;99.90
35668;DHT22;22158;59.280;17.806;2022-10-16T07:53:10;12.80;99.90
35668;DHT22;22158;59.280;17.806;2022-10-16T07:55:36;12.80;99.90
35668;DHT22;22158;59.280;17.806;2022-10-16T07:58:02;12.80;99.90
35668;DHT22;22158;59.280;17.806;2022-10-16T08:00:27;12.80;99.90
35668;DHT22;22158;59.280;17.806;2022-10-16T08:02:53;12.80;99.90
35668;DHT22;22158;59.280;17.806;2022-10-16T08:05:19;12.70;99.90
35668;DHT22;22158;59.280;17.806;2022-10-16T08:07:51;12.80;99.90
35668;DHT22;22158;59.280;17.806;2022-10-16T08:10:18;12.90;99.90
35668;DHT22;22158;59.280;17.806;2022-10-16T08:12:44;12.90;99.90
35668;DHT22;22158;59.280;17.806;2022-10-16T08:15:10;12.90;99.90
35668;DHT22;22158;59.280;17.806;2022-10-16T08:17:36;12.90;99.90
35668;DHT22;22158;59.280;17.806;2022-10-16T08:20:02;12.90;99.90
35668;DHT22;22158;59.280;17.806;2022-10-16T08:22:28;12.90;99.90
35668;DHT22;22158;59.280;17.806;2022-10-16T08:24:54;12.80;99.90
35668;DHT22;22158;59.280;17.806;2022-10-16T08:27:19;12.80;99.90
35668;DHT22;22158;59.280;17.806;2022-10-16T08:29:45;12.90;99.90
35668;DHT22;22158;59.280;17.806;2022-10-16T08:32:11;12.80;99.90
35668;DHT22;22158;59.280;17.806;2022-10-16T08:34:36;12.80;99.90
35668;DHT22;22158;59.280;17.806;2022-10-16T08:37:02;12.90;99.90
35668;DHT22;22158;59.280;17.806;2022-10-16T08:39:27;12.90;99.90
35668;DHT22;22158;59.280;17.806;2022-10-16T08:44:37;12.90;99.90
35668;DHT22;22158;59.280;17.806;2022-10-16T08:50:02;13.00;99.90
35668;DHT22;22158;59.280;17.806;2022-10-16T08:52:35;13.00;99.90
35668;DHT22;22158;59.280;17.806;2022-10-16T08:55:04;13.00;99.90
35668;DHT22;22158;59.280;17.806;2022-10-16T08:57:30;13.00;99.90
35668;DHT22;22158;59.280;17.806;2022-10-16T09:00:00;13.00;99.90
35668;DHT22;22158;59.280;17.806;2022-10-16T09:02:46;12.90;99.90
35668;DHT22;22158;59.280;17.806;2022-10-16T09:10:59;13.00;99.90
35668;DHT22;22158;59.280;17.806;2022-10-16T09:13:57;13.10;99.90
35668;DHT22;22158;59.280;17.806;2022-10-16T09:16:43;13.10;99.90
35668;DHT22;22158;59.280;17.806;2022-10-16T09:19:15;13.20;99.90
35668;DHT22;22158;59.280;17.806;2022-10-16T09:21:45;13.40;99.90
35668;DHT22;22158;59.280;17.806;2022-10-16T09:24:18;13.50;99.90
35668;DHT22;22158;59.280;17.806;2022-10-16T09:26:45;13.70;99.90
35668;DHT22;22158;59.280;17.806;2022-10-16T09:29:16;13.80;99.90
35668;DHT22;22158;59.280;17.806;2022-10-16T09:31:42;13.90;99.90
35668;DHT22;22158;59.280;17.806;2022-10-16T09:34:32;13.90;99.90
35668;DHT22;22158;59.280;17.806;2022-10-16T09:37:00;14.00;99.90
35668;DHT22;22158;59.280;17.806;2022-10-16T09:39:28;14.00;99.90
35668;DHT22;22158;59.280;17.806;2022-10-16T09:41:54;14.00;99.90
35668;DHT22;22158;59.280;17.806;2022-10-16T09:44:27;14.00;99.90
35668;DHT22;22158;59.280;17.806;2022-10-16T09:47:04;14.00;99.90
35668;DHT22;22158;59.280;17.806;2022-10-16T09:49:30;14.00;99.90
35668;DHT22;22158;59.280;17.806;2022-10-16T09:52:15;14.00;99.90
35668;DHT22;22158;59.280;17.806;2022-10-16T09:55:09;14.00;99.90
35668;DHT22;22158;59.280;17.806;2022-10-16T09:57:52;14.10;99.90
35668;DHT22;22158;59.280;17.806;2022-10-16T10:00:18;14.10;99.90
35668;DHT22;22158;59.280;17.806;2022-10-16T10:02:45;14.20;99.90
35668;DHT22;22158;59.280;17.806;2022-10-16T10:05:25;14.10;99.90
35668;DHT22;22158;59.280;17.806;2022-10-16T10:08:02;14.10;99.90
35668;DHT22;22158;59.280;17.806;2022-10-16T10:10:41;14.10;99.90
35668;DHT22;22158;59.280;17.806;2022-10-16T10:13:24;14.10;99.90
35668;DHT22;22158;59.280;17.806;2022-10-16T10:15:50;14.10;99.90
35668;DHT22;22158;59.280;17.806;2022-10-16T10:18:21;14.10;99.90
35668;DHT22;22158;59.280;17.806;2022-10-16T10:21:01;14.10;99.90
35668;DHT22;22158;59.280;17.806;2022-10-16T10:23:29;14.20;99.90
35668;DHT22;22158;59.280;17.806;2022-10-16T10:26:12;14.30;99.90
35668;DHT22;22158;59.280;17.806;2022-10-16T10:31:52;14.30;99.90
35668;DHT22;22158;59.280;17.806;2022-10-16T10:34:49;14.30;99.90
35668;DHT22;22158;59.280;17.806;2022-10-16T10:45:38;14.30;99.90
35668;DHT22;22158;59.280;17.806;2022-10-16T10:56:23;14.60;99.90
35668;DHT22;22158;59.280;17.806;2022-10-16T11:07:32;14.90;99.90
35668;DHT22;22158;59.280;17.806;2022-10-16T11:10:07;14.90;99.90
35668;DHT22;22158;59.280;17.806;2022-10-16T11:12:42;14.90;99.90
35668;DHT22;22158;59.280;17.806;2022-10-16T11:15:31;14.80;99.90
35668;DHT22;22158;59.280;17.806;2022-10-16T11:20:45;14.70;99.90
35668;DHT22;22158;59.280;17.806;2022-10-16T11:23:28;14.70;99.90
35668;DHT22;22158;59.280;17.806;2022-10-16T11:25:59;14.70;99.90
35668;DHT22;22158;59.280;17.806;2022-10-16T11:28:33;14.60;99.90
35668;DHT22;22158;59.280;17.806;2022-10-16T11:31:22;14.60;99.90
35668;DHT22;22158;59.280;17.806;2022-10-16T11:36:25;14.70;99.90
35668;DHT22;22158;59.280;17.806;2022-10-16T11:42:08;14.50;99.90
35668;DHT22;22158;59.280;17.806;2022-10-16T11:47:47;14.40;99.90
35668;DHT22;22158;59.280;17.806;2022-10-16T11:50:34;14.40;99.90
35668;DHT22;22158;59.280;17.806;2022-10-16T11:55:47;14.40;99.90
35668;DHT22;22158;59.280;17.806;2022-10-16T12:01:15;14.90;99.90
35668;DHT22;22158;59.280;17.806;2022-10-16T12:08:59;15.20;99.90
35668;DHT22;22158;59.280;17.806;2022-10-16T12:19:27;15.50;99.90
35668;DHT22;22158;59.280;17.806;2022-10-16T12:21:56;15.70;99.90
35668;DHT22;22158;59.280;17.806;2022-10-16T12:24:41;15.70;99.90
35668;DHT22;22158;59.280;17.806;2022-10-16T12:27:30;15.60;99.90
35668;DHT22;22158;59.280;17.806;2022-10-16T12:30:04;15.70;99.90
35668;DHT22;22158;59.280;17.806;2022-10-16T12:32:37;15.60;99.90
35668;DHT22;22158;59.280;17.806;2022-10-16T12:35:04;15.50;99.90
35668;DHT22;22158;59.280;17.806;2022-10-16T12:37:38;15.30;99.90
35668;DHT22;22158;59.280;17.806;2022-10-16T12:40:15;15.10;99.90
35668;DHT22;22158;59.280;17.806;2022-10-16T12:42:41;15.00;99.90
35668;DHT22;22158;59.280;17.806;2022-10-16T12:47:53;14.80;99.90
35668;DHT22;22158;59.280;17.806;2022-10-16T12:52:58;14.70;99.90
35668;DHT22;22158;59.280;17.806;2022-10-16T12:55:24;14.60;99.90
35668;DHT22;22158;59.280;17.806;2022-10-16T13:00:45;14.40;99.90
35668;DHT22;22158;59.280;17.806;2022-10-16T13:06:22;14.50;99.90
35668;DHT22;22158;59.280;17.806;2022-10-16T13:28:11;16.20;99.90
35668;DHT22;22158;59.280;17.806;2022-10-16T13:30:41;16.00;99.90
35668;DHT22;22158;59.280;17.806;2022-10-16T13:35:35;16.00;99.90
35668;DHT22;22158;59.280;17.806;2022-10-16T13:38:25;16.10;99.90
35668;DHT22;22158;59.280;17.806;2022-10-16T13:40:53;15.80;99.90
35668;DHT22;22158;59.280;17.806;2022-10-16T13:43:23;16.00;99.90
35668;DHT22;22158;59.280;17.806;2022-10-16T13:45:54;16.20;99.90
35668;DHT22;22158;59.280;17.806;2022-10-16T13:48:20;16.30;99.90
35668;DHT22;22158;59.280;17.806;2022-10-16T13:50:46;16.20;99.90
35668;DHT22;22158;59.280;17.806;2022-10-16T13:53:15;16.30;99.90
35668;DHT22;22158;59.280;17.806;2022-10-16T13:55:40;16.20;99.90
35668;DHT22;22158;59.280;17.806;2022-10-16T13:58:13;16.00;99.90
35668;DHT22;22158;59.280;17.806;2022-10-16T14:00:40;16.10;99.90
35668;DHT22;22158;59.280;17.806;2022-10-16T14:03:15;16.30;99.90
35668;DHT22;22158;59.280;17.806;2022-10-16T14:05:50;16.60;99.90
35668;DHT22;22158;59.280;17.806;2022-10-16T14:08:16;16.60;99.90
35668;DHT22;22158;59.280;17.806;2022-10-16T14:10:42;16.20;99.90
35668;DHT22;22158;59.280;17.806;2022-10-16T14:13:19;15.90;99.90
35668;DHT22;22158;59.280;17.806;2022-10-16T14:15:48;15.50;99.90
35668;DHT22;22158;59.280;17.806;2022-10-16T14:18:23;15.40;99.90
35668;DHT22;22158;59.280;17.806;2022-10-16T14:20:50;15.10;99.90
35668;DHT22;22158;59.280;17.806;2022-10-16T14:23:37;14.90;99.90
35668;DHT22;22158;59.280;17.806;2022-10-16T14:28:36;14.50;99.90
35668;DHT22;22158;59.280;17.806;2022-10-16T14:31:16;14.20;99.90
35668;DHT22;22158;59.280;17.806;2022-10-16T14:33:45;14.10;99.90
35668;DHT22;22158;59.280;17.806;2022-10-16T14:38:42;14.10;99.90
35668;DHT22;22158;59.280;17.806;2022-10-16T14:41:08;13.90;99.90
35668;DHT22;22158;59.280;17.806;2022-10-16T14:43:37;13.90;99.90
35668;DHT22;22158;59.280;17.806;2022-10-16T14:46:09;13.80;99.90
35668;DHT22;22158;59.280;17.806;2022-10-16T14:48:41;13.80;99.90
35668;DHT22;22158;59.280;17.806;2022-10-16T14:51:14;13.80;99.90
35668;DHT22;22158;59.280;17.806;2022-10-16T14:53:40;13.80;99.90
35668;DHT22;22158;59.280;17.806;2022-10-16T14:59:02;13.70;99.90
35668;DHT22;22158;59.280;17.806;2022-10-16T15:01:28;13.60;99.90
35668;DHT22;22158;59.280;17.806;2022-10-16T15:03:54;13.60;99.90
35668;DHT22;22158;59.280;17.806;2022-10-16T15:06:21;13.60;99.90
35668;DHT22;22158;59.280;17.806;2022-10-16T15:08:50;13.60;99.90
35668;DHT22;22158;59.280;17.806;2022-10-16T15:11:18;13.60;99.90
35668;DHT22;22158;59.280;17.806;2022-10-16T15:13:45;13.50;99.90
35668;DHT22;22158;59.280;17.806;2022-10-16T15:16:18;12.80;99.90
35668;DHT22;22158;59.280;17.806;2022-10-16T15:18:43;12.20;99.90
35668;DHT22;22158;59.280;17.806;2022-10-16T15:21:23;11.70;99.90
35668;DHT22;22158;59.280;17.806;2022-10-16T15:23:50;11.20;99.90
35668;DHT22;22158;59.280;17.806;2022-10-16T15:26:16;11.00;99.90
35668;DHT22;22158;59.280;17.806;2022-10-16T15:28:42;10.80;99.90
35668;DHT22;22158;59.280;17.806;2022-10-16T15:31:07;10.80;99.90
35668;DHT22;22158;59.280;17.806;2022-10-16T15:33:33;10.80;99.90
35668;DHT22;22158;59.280;17.806;2022-10-16T15:36:01;10.70;99.90
35668;DHT22;22158;59.280;17.806;2022-10-16T15:38:27;10.50;99.90
35668;DHT22;22158;59.280;17.806;2022-10-16T15:40:54;10.40;99.90
35668;DHT22;22158;59.280;17.806;2022-10-16T15:43:20;10.40;99.90
35668;DHT22;22158;59.280;17.806;2022-10-16T15:46:04;10.40;99.90
35668;DHT22;22158;59.280;17.806;2022-10-16T15:48:31;10.40;99.90
35668;DHT22;22158;59.280;17.806;2022-10-16T15:50:57;10.40;99.90
35668;DHT22;22158;59.280;17.806;2022-10-16T15:53:23;10.30;99.90
35668;DHT22;22158;59.280;17.806;2022-10-16T15:55:49;10.30;99.90
35668;DHT22;22158;59.280;17.806;2022-10-16T15:58:15;10.30;99.90
35668;DHT22;22158;59.280;17.806;2022-10-16T16:00:40;10.40;99.90
35668;DHT22;22158;59.280;17.806;2022-10-16T16:03:06;10.40;99.90
35668;DHT22;22158;59.280;17.806;2022-10-16T16:05:32;10.40;99.90
35668;DHT22;22158;59.280;17.806;2022-10-16T16:07:58;10.40;99.90
35668;DHT22;22158;59.280;17.806;2022-10-16T16:10:24;10.40;99.90
35668;DHT22;22158;59.280;17.806;2022-10-16T16:12:50;10.40;99.90
35668;DHT22;22158;59.280;17.806;2022-10-16T16:15:21;10.30;99.90
35668;DHT22;22158;59.280;17.806;2022-10-16T16:17:48;10.30;99.90
35668;DHT22;22158;59.280;17.806;2022-10-16T16:20:14;10.20;99.90
35668;DHT22;22158;59.280;17.806;2022-10-16T16:22:40;10.20;99.90
35668;DHT22;22158;59.280;17.806;2022-10-16T16:25:07;10.30;99.90
35668;DHT22;22158;59.280;17.806;2022-10-16T16:27:32;10.30;99.90
35668;DHT22;22158;59.280;17.806;2022-10-16T16:30:02;10.30;99.90
35668;DHT22;22158;59.280;17.806;2022-10-16T16:32:29;10.20;99.90
35668;DHT22;22158;59.280;17.806;2022-10-16T16:34:55;10.20;99.90
35668;DHT22;22158;59.280;17.806;2022-10-16T16:37:20;10.10;99.90
35668;DHT22;22158;59.280;17.806;2022-10-16T16:39:46;10.20;99.90
35668;DHT22;22158;59.280;17.806;2022-10-16T16:42:12;10.10;99.90
35668;DHT22;22158;59.280;17.806;2022-10-16T16:44:37;10.00;99.90
35668;DHT22;22158;59.280;17.806;2022-10-16T16:47:04;10.00;99.90
35668;DHT22;22158;59.280;17.806;2022-10-16T16:49:30;10.00;99.90
35668;DHT22;22158;59.280;17.806;2022-10-16T16:51:56;10.00;99.90
35668;DHT22;22158;59.280;17.806;2022-10-16T16:54:21;10.00;99.90
35668;DHT22;22158;59.280;17.806;2022-10-16T16:56:47;10.00;99.90
35668;DHT22;22158;59.280;17.806;2022-10-16T16:59:16;10.00;99.90
35668;DHT22;22158;59.280;17.806;2022-10-16T17:01:43;10.00;99.90
35668;DHT22;22158;59.280;17.806;2022-10-16T17:04:09;10.00;99.90
35668;DHT22;22158;59.280;17.806;2022-10-16T17:06:36;9.90;99.90
35668;DHT22;22158;59.280;17.806;2022-10-16T17:09:03;9.90;99.90
35668;DHT22;22158;59.280;17.806;2022-10-16T17:11:29;9.90;99.90
35668;DHT22;22158;59.280;17.806;2022-10-16T17:13:56;9.80;99.90
35668;DHT22;22158;59.280;17.806;2022-10-16T17:16:25;9.80;99.90
35668;DHT22;22158;59.280;17.806;2022-10-16T17:18:51;9.80;99.90
35668;DHT22;22158;59.280;17.806;2022-10-16T17:21:19;9.80;99.90
35668;DHT22;22158;59.280;17.806;2022-10-16T17:23:45;9.70;99.90
35668;DHT22;22158;59.280;17.806;2022-10-16T17:26:13;9.70;99.90
35668;DHT22;22158;59.280;17.806;2022-10-16T17:28:40;9.60;99.90
35668;DHT22;22158;59.280;17.806;2022-10-16T17:31:19;9.60;99.90
35668;DHT22;22158;59.280;17.806;2022-10-16T17:33:45;9.60;99.90